Geraldton, Canada
Current Conditions -  °F | °C
As of 3:00 AM on Saturday 20 Dec 2014 (Local Time) from CYGQ Reporting Station
Light Snow Light Snow  
Wind Chill:   Ceiling: 1500
Heat Index:   Visibility: 8mi
Dew Point:   Wind: 3mph
Humidity: 85%   Direction: 110°ESE
Pressure: 30.2"   Gusts: NA
Location:  49.72°N, 86.95°W
Report Text: CYGQ 200800Z 11003KT 050V150 8SM -SN OVC015 M15/M17 A3020 RMKSC8 SLP261
Loading
Personal Weather Stations






























Interactive Weather Map New forecast layout! Learn more

10-Day Weather Forecast

Advertisements
Track Severe Weather on mobile